Disclaimer

Please do not use the information listed here in-flight or in-navigation, as they are not provided to us by the airports but are provided by volunteers, so they might be outdated.

Search


Regions


Airport information page

Radio informations:
PUERTO MONTT RDO - 126.9 MHz
Ground (GND) - 121.9 MHz
PUERTO MONTT CNT - 128.3 MHz
PUERTO MONTT APP - 123.7 MHz

Airport informations:
Latitude: 41° 26' 19.99" S
Longitude: 073° 05' 38.23" W
Elevation: 294 feet - 90 meters
Operating hours: 24 hour operations
Operating agency: Military-civil joint use airport
Timezone: UTC-4(-3DT)
Fuel: Jet A1, without icing nhibitor.

100/130 MIL Spec, low lead, aviation gasoline (BLUE)

Runway information:
17/35 - 8694 x 148 feet< - >2650 x 45 meters

Recent METARs:
SCTE 190200Z 35003KT 310V030 9999 SCT041 OVC090 12/11 Q1018 NOSIG
SCTE 190200Z 35003KT 310V030 9999 SCT041 OVC090 12/11 Q1018 NOSIG
SCTE 190300Z 30004KT 260V340 9999 BKN060 OVC080 12/09 Q1017 NOSIG

Airport on the map: